sensor_id;sensor_type;location;lat;lon;timestamp;pressure;altitude;pressure_sealevel;temperature;humidity
49627;BME280;35527;54.616;39.786;2023-05-11T00:02:19;100430.59;;;9.56;50.74
49627;BME280;35527;54.616;39.786;2023-05-11T00:05:23;100422.97;;;9.51;50.59
49627;BME280;35527;54.616;39.786;2023-05-11T00:08:30;100438.19;;;9.62;50.93
49627;BME280;35527;54.616;39.786;2023-05-11T00:11:32;100437.41;;;9.58;50.51
49627;BME280;35527;54.616;39.786;2023-05-11T00:14:37;100440.78;;;9.62;50.20
49627;BME280;35527;54.616;39.786;2023-05-11T00:17:42;100438.28;;;9.59;50.66
49627;BME280;35527;54.616;39.786;2023-05-11T00:20:45;100415.63;;;9.34;51.91
49627;BME280;35527;54.616;39.786;2023-05-11T00:23:51;100432.47;;;9.49;51.57
49627;BME280;35527;54.616;39.786;2023-05-11T00:26:55;100437.53;;;9.54;50.74
49627;BME280;35527;54.616;39.786;2023-05-11T00:30:05;100443.31;;;9.63;50.29
49627;BME280;35527;54.616;39.786;2023-05-11T00:33:10;100433.75;;;9.67;49.56
49627;BME280;35527;54.616;39.786;2023-05-11T00:36:14;100436.28;;;9.70;49.23
49627;BME280;35527;54.616;39.786;2023-05-11T00:39:17;100426.88;;;9.66;49.36
49627;BME280;35527;54.616;39.786;2023-05-11T00:42:20;100418.31;;;9.64;49.55
49627;BME280;35527;54.616;39.786;2023-05-11T00:45:23;100435.31;;;9.74;50.31
49627;BME280;35527;54.616;39.786;2023-05-11T00:48:27;100437.16;;;9.69;50.88
49627;BME280;35527;54.616;39.786;2023-05-11T00:51:31;100415.28;;;9.48;51.36
49627;BME280;35527;54.616;39.786;2023-05-11T00:54:34;100419.59;;;9.47;51.25
49627;BME280;35527;54.616;39.786;2023-05-11T00:57:40;100436.72;;;9.52;52.55
49627;BME280;35527;54.616;39.786;2023-05-11T01:00:43;100425.84;;;9.39;52.52
49627;BME280;35527;54.616;39.786;2023-05-11T01:03:47;100435.97;;;9.46;52.61
49627;BME280;35527;54.616;39.786;2023-05-11T01:07:14;100435.81;;;9.53;52.25
49627;BME280;35527;54.616;39.786;2023-05-11T01:10:31;100428.06;;;9.53;52.52
49627;BME280;35527;54.616;39.786;2023-05-11T01:13:56;100435.69;;;9.59;53.15
49627;BME280;35527;54.616;39.786;2023-05-11T01:17:09;100428.97;;;9.52;53.62
49627;BME280;35527;54.616;39.786;2023-05-11T01:20:20;100436.78;;;9.50;53.21
49627;BME280;35527;54.616;39.786;2023-05-11T01:30:25;100445.91;;;9.63;52.76
49627;BME280;35527;54.616;39.786;2023-05-11T01:33:32;100429.88;;;9.51;52.86
49627;BME280;35527;54.616;39.786;2023-05-11T01:36:52;100445.97;;;9.60;53.69
49627;BME280;35527;54.616;39.786;2023-05-11T01:40:02;100427.31;;;9.49;53.49
49627;BME280;35527;54.616;39.786;2023-05-11T01:43:13;100443.44;;;9.59;53.11
49627;BME280;35527;54.616;39.786;2023-05-11T01:46:26;100423.88;;;9.48;53.05
49627;BME280;35527;54.616;39.786;2023-05-11T01:49:34;100441.56;;;9.65;52.72
49627;BME280;35527;54.616;39.786;2023-05-11T01:52:41;100437.22;;;9.66;52.84
49627;BME280;35527;54.616;39.786;2023-05-11T01:55:46;100440.72;;;9.65;52.78
49627;BME280;35527;54.616;39.786;2023-05-11T01:58:55;100436.22;;;9.72;52.54
49627;BME280;35527;54.616;39.786;2023-05-11T02:01:59;100414.38;;;9.51;53.54
49627;BME280;35527;54.616;39.786;2023-05-11T02:05:04;100418.63;;;9.52;54.16
49627;BME280;35527;54.616;39.786;2023-05-11T02:08:13;100431.31;;;9.61;54.79
49627;BME280;35527;54.616;39.786;2023-05-11T02:11:21;100415.06;;;9.57;53.91
49627;BME280;35527;54.616;39.786;2023-05-11T02:14:28;100408.84;;;9.64;53.79
49627;BME280;35527;54.616;39.786;2023-05-11T02:17:38;100421.44;;;9.77;54.64
49627;BME280;35527;54.616;39.786;2023-05-11T02:20:42;100425.78;;;9.76;53.93
49627;BME280;35527;54.616;39.786;2023-05-11T02:23:47;100412.19;;;9.68;54.23
49627;BME280;35527;54.616;39.786;2023-05-11T02:26:51;100428.31;;;9.78;54.27
49627;BME280;35527;54.616;39.786;2023-05-11T02:29:55;100430.81;;;9.81;53.77
49627;BME280;35527;54.616;39.786;2023-05-11T02:33:04;100435.50;;;9.99;53.18
49627;BME280;35527;54.616;39.786;2023-05-11T02:36:13;100437.75;;;10.13;52.89
49627;BME280;35527;54.616;39.786;2023-05-11T02:39:20;100433.44;;;10.12;53.89
49627;BME280;35527;54.616;39.786;2023-05-11T02:42:25;100445.03;;;10.30;53.93
49627;BME280;35527;54.616;39.786;2023-05-11T02:45:37;100445.91;;;10.30;54.37
49627;BME280;35527;54.616;39.786;2023-05-11T02:48:49;100439.94;;;10.27;55.19
49627;BME280;35527;54.616;39.786;2023-05-11T02:51:55;100442.44;;;10.30;55.03
49627;BME280;35527;54.616;39.786;2023-05-11T02:55:01;100419.97;;;10.32;54.66
49627;BME280;35527;54.616;39.786;2023-05-11T02:58:07;100418.44;;;10.25;53.70
49627;BME280;35527;54.616;39.786;2023-05-11T03:01:14;100434.47;;;10.39;52.10
49627;BME280;35527;54.616;39.786;2023-05-11T03:04:19;100437.88;;;10.40;52.28
49627;BME280;35527;54.616;39.786;2023-05-11T03:07:24;100443.34;;;10.60;51.79
49627;BME280;35527;54.616;39.786;2023-05-11T03:10:29;100453.03;;;10.81;52.01
49627;BME280;35527;54.616;39.786;2023-05-11T03:13:34;100428.78;;;10.86;50.47
49627;BME280;35527;54.616;39.786;2023-05-11T03:16:40;100453.16;;;11.07;51.01
49627;BME280;35527;54.616;39.786;2023-05-11T03:19:45;100452.75;;;11.20;50.92
49627;BME280;35527;54.616;39.786;2023-05-11T03:22:51;100451.28;;;11.38;50.04
49627;BME280;35527;54.616;39.786;2023-05-11T03:26:02;100437.19;;;11.47;49.79
49627;BME280;35527;54.616;39.786;2023-05-11T03:29:06;100432.59;;;11.55;49.70
49627;BME280;35527;54.616;39.786;2023-05-11T03:32:12;100464.59;;;11.81;48.41
49627;BME280;35527;54.616;39.786;2023-05-11T03:35:19;100455.69;;;11.89;48.50
49627;BME280;35527;54.616;39.786;2023-05-11T03:38:27;100461.25;;;12.04;48.53
49627;BME280;35527;54.616;39.786;2023-05-11T03:41:38;100448.34;;;12.02;47.81
49627;BME280;35527;54.616;39.786;2023-05-11T03:44:45;100441.34;;;12.04;48.26
49627;BME280;35527;54.616;39.786;2023-05-11T03:47:52;100468.97;;;12.30;48.23
49627;BME280;35527;54.616;39.786;2023-05-11T03:50:56;100472.25;;;12.35;49.38
49627;BME280;35527;54.616;39.786;2023-05-11T03:54:01;100469.72;;;12.34;46.89
49627;BME280;35527;54.616;39.786;2023-05-11T03:57:04;100454.47;;;12.25;47.20
49627;BME280;35527;54.616;39.786;2023-05-11T04:00:09;100446.59;;;12.28;48.56
49627;BME280;35527;54.616;39.786;2023-05-11T04:03:19;100476.38;;;12.41;48.72
49627;BME280;35527;54.616;39.786;2023-05-11T04:06:22;100477.28;;;12.63;47.58
49627;BME280;35527;54.616;39.786;2023-05-11T04:09:34;100464.38;;;12.62;47.43
49627;BME280;35527;54.616;39.786;2023-05-11T04:12:40;100473.00;;;12.62;46.17
49627;BME280;35527;54.616;39.786;2023-05-11T04:15:45;100473.72;;;12.66;45.90
49627;BME280;35527;54.616;39.786;2023-05-11T04:18:51;100480.38;;;12.73;45.31
49627;BME280;35527;54.616;39.786;2023-05-11T04:21:56;100476.53;;;12.83;45.18
49627;BME280;35527;54.616;39.786;2023-05-11T04:25:01;100474.75;;;12.85;45.50
49627;BME280;35527;54.616;39.786;2023-05-11T04:28:05;100478.50;;;13.00;46.57
49627;BME280;35527;54.616;39.786;2023-05-11T04:31:08;100475.44;;;13.13;46.71
49627;BME280;35527;54.616;39.786;2023-05-11T04:34:14;100481.13;;;13.44;46.95
49627;BME280;35527;54.616;39.786;2023-05-11T04:37:20;100475.47;;;13.57;44.21
49627;BME280;35527;54.616;39.786;2023-05-11T04:40:28;100477.69;;;14.07;43.00
49627;BME280;35527;54.616;39.786;2023-05-11T04:43:30;100478.84;;;14.80;42.53
49627;BME280;35527;54.616;39.786;2023-05-11T04:46:33;100477.41;;;15.47;40.23
49627;BME280;35527;54.616;39.786;2023-05-11T04:49:38;100475.41;;;15.71;40.02
49627;BME280;35527;54.616;39.786;2023-05-11T04:52:42;100483.06;;;15.74;40.47
49627;BME280;35527;54.616;39.786;2023-05-11T04:55:46;100471.97;;;15.51;41.98
49627;BME280;35527;54.616;39.786;2023-05-11T04:58:50;100476.75;;;15.24;41.21
49627;BME280;35527;54.616;39.786;2023-05-11T05:01:57;100472.19;;;15.10;41.36
49627;BME280;35527;54.616;39.786;2023-05-11T05:05:00;100467.97;;;15.44;41.46
49627;BME280;35527;54.616;39.786;2023-05-11T05:08:05;100476.75;;;15.95;41.50
49627;BME280;35527;54.616;39.786;2023-05-11T05:11:09;100465.97;;;16.52;40.68
49627;BME280;35527;54.616;39.786;2023-05-11T05:14:15;100454.91;;;17.88;38.43
49627;BME280;35527;54.616;39.786;2023-05-11T05:17:18;100452.16;;;19.31;35.56
49627;BME280;35527;54.616;39.786;2023-05-11T05:20:23;100458.41;;;20.60;33.52
49627;BME280;35527;54.616;39.786;2023-05-11T05:23:27;100466.81;;;20.78;31.92
49627;BME280;35527;54.616;39.786;2023-05-11T05:26:31;100446.16;;;20.72;32.48
49627;BME280;35527;54.616;39.786;2023-05-11T05:29:36;100462.69;;;21.58;31.90
49627;BME280;35527;54.616;39.786;2023-05-11T05:32:43;100459.13;;;22.17;30.45
49627;BME280;35527;54.616;39.786;2023-05-11T05:35:47;100471.94;;;21.16;32.24
49627;BME280;35527;54.616;39.786;2023-05-11T05:38:53;100432.59;;;21.50;31.63
49627;BME280;35527;54.616;39.786;2023-05-11T05:42:00;100467.34;;;22.01;31.79
49627;BME280;35527;54.616;39.786;2023-05-11T05:45:04;100469.59;;;23.51;29.19
49627;BME280;35527;54.616;39.786;2023-05-11T05:48:07;100466.06;;;22.63;30.24
49627;BME280;35527;54.616;39.786;2023-05-11T05:51:13;100459.63;;;22.56;30.74
49627;BME280;35527;54.616;39.786;2023-05-11T05:54:17;100459.63;;;23.22;29.86
49627;BME280;35527;54.616;39.786;2023-05-11T05:57:21;100464.09;;;23.10;29.24
49627;BME280;35527;54.616;39.786;2023-05-11T06:00:24;100461.53;;;25.56;27.10
49627;BME280;35527;54.616;39.786;2023-05-11T06:03:35;100441.19;;;26.41;25.38
49627;BME280;35527;54.616;39.786;2023-05-11T06:06:40;100447.75;;;26.74;25.13
49627;BME280;35527;54.616;39.786;2023-05-11T06:09:44;100455.63;;;26.66;24.48
49627;BME280;35527;54.616;39.786;2023-05-11T06:12:46;100431.84;;;27.81;22.40
49627;BME280;35527;54.616;39.786;2023-05-11T06:15:51;100449.94;;;28.38;21.24
49627;BME280;35527;54.616;39.786;2023-05-11T06:19:07;100451.81;;;28.88;19.95
49627;BME280;35527;54.616;39.786;2023-05-11T06:22:12;100460.63;;;27.86;20.48
49627;BME280;35527;54.616;39.786;2023-05-11T06:25:15;100443.94;;;28.79;20.20
49627;BME280;35527;54.616;39.786;2023-05-11T06:28:21;100433.56;;;27.29;19.62
49627;BME280;35527;54.616;39.786;2023-05-11T06:31:33;100440.03;;;25.20;20.48
49627;BME280;35527;54.616;39.786;2023-05-11T06:35:12;100448.84;;;26.16;19.65
49627;BME280;35527;54.616;39.786;2023-05-11T06:38:26;100442.53;;;26.64;18.97
49627;BME280;35527;54.616;39.786;2023-05-11T06:41:31;100444.59;;;28.38;18.01
49627;BME280;35527;54.616;39.786;2023-05-11T06:44:34;100450.72;;;29.48;16.86
49627;BME280;35527;54.616;39.786;2023-05-11T06:47:42;100439.44;;;30.18;15.79
49627;BME280;35527;54.616;39.786;2023-05-11T06:50:45;100451.75;;;30.75;14.84
49627;BME280;35527;54.616;39.786;2023-05-11T06:53:51;100432.34;;;31.35;14.21
49627;BME280;35527;54.616;39.786;2023-05-11T06:56:55;100427.88;;;31.51;14.15
49627;BME280;35527;54.616;39.786;2023-05-11T07:00:00;100416.78;;;31.92;14.76
49627;BME280;35527;54.616;39.786;2023-05-11T07:03:04;100444.34;;;31.39;14.70
49627;BME280;35527;54.616;39.786;2023-05-11T07:06:09;100448.66;;;27.10;16.16
49627;BME280;35527;54.616;39.786;2023-05-11T07:09:13;100423.47;;;24.58;17.74
49627;BME280;35527;54.616;39.786;2023-05-11T07:12:16;100441.22;;;23.85;18.39
49627;BME280;35527;54.616;39.786;2023-05-11T07:15:21;100437.88;;;24.14;18.34
49627;BME280;35527;54.616;39.786;2023-05-11T07:18:26;100429.38;;;25.69;17.41
49627;BME280;35527;54.616;39.786;2023-05-11T07:21:29;100438.34;;;25.87;16.94
49627;BME280;35527;54.616;39.786;2023-05-11T07:24:35;100445.03;;;25.62;18.27
49627;BME280;35527;54.616;39.786;2023-05-11T07:27:41;100423.19;;;24.21;17.82
49627;BME280;35527;54.616;39.786;2023-05-11T07:30:46;100425.63;;;24.43;18.18
49627;BME280;35527;54.616;39.786;2023-05-11T07:33:49;100393.28;;;24.90;18.10
49627;BME280;35527;54.616;39.786;2023-05-11T07:36:52;100410.41;;;25.73;16.68
49627;BME280;35527;54.616;39.786;2023-05-11T07:39:55;100434.34;;;26.38;16.94
49627;BME280;35527;54.616;39.786;2023-05-11T07:42:59;100444.97;;;26.01;16.71
49627;BME280;35527;54.616;39.786;2023-05-11T07:46:03;100444.66;;;23.65;18.96
49627;BME280;35527;54.616;39.786;2023-05-11T07:49:06;100428.91;;;22.66;19.25
49627;BME280;35527;54.616;39.786;2023-05-11T07:52:16;100449.31;;;22.53;19.54
49627;BME280;35527;54.616;39.786;2023-05-11T07:55:20;100430.53;;;23.01;19.82
49627;BME280;35527;54.616;39.786;2023-05-11T07:58:28;100438.91;;;23.38;19.88
49627;BME280;35527;54.616;39.786;2023-05-11T08:01:31;100438.75;;;23.19;19.75
49627;BME280;35527;54.616;39.786;2023-05-11T08:04:35;100421.25;;;22.41;20.19
49627;BME280;35527;54.616;39.786;2023-05-11T08:07:39;100432.53;;;21.74;20.92
49627;BME280;35527;54.616;39.786;2023-05-11T08:10:43;100434.13;;;21.41;21.98
49627;BME280;35527;54.616;39.786;2023-05-11T08:13:46;100428.63;;;20.96;21.54
49627;BME280;35527;54.616;39.786;2023-05-11T08:16:49;100436.13;;;20.89;21.77
49627;BME280;35527;54.616;39.786;2023-05-11T08:19:56;100429.53;;;21.08;22.27
49627;BME280;35527;54.616;39.786;2023-05-11T08:23:00;100422.47;;;21.68;21.42
49627;BME280;35527;54.616;39.786;2023-05-11T08:26:03;100432.47;;;21.51;21.39
49627;BME280;35527;54.616;39.786;2023-05-11T08:32:08;100421.84;;;21.53;21.09
49627;BME280;35527;54.616;39.786;2023-05-11T08:35:11;100413.50;;;21.35;20.94
49627;BME280;35527;54.616;39.786;2023-05-11T08:38:14;100404.44;;;20.91;21.83
49627;BME280;35527;54.616;39.786;2023-05-11T08:41:18;100404.63;;;20.51;22.37
49627;BME280;35527;54.616;39.786;2023-05-11T08:44:25;100413.44;;;20.76;21.88
49627;BME280;35527;54.616;39.786;2023-05-11T08:47:28;100411.19;;;20.58;21.92
49627;BME280;35527;54.616;39.786;2023-05-11T08:50:32;100418.66;;;20.39;22.04
49627;BME280;35527;54.616;39.786;2023-05-11T08:53:34;100418.88;;;20.36;22.25
49627;BME280;35527;54.616;39.786;2023-05-11T08:56:40;100396.38;;;20.81;21.90
49627;BME280;35527;54.616;39.786;2023-05-11T08:59:44;100397.69;;;21.35;21.28
49627;BME280;35527;54.616;39.786;2023-05-11T09:02:50;100401.34;;;22.25;20.37
49627;BME280;35527;54.616;39.786;2023-05-11T09:05:53;100381.63;;;23.18;20.15
49627;BME280;35527;54.616;39.786;2023-05-11T09:09:04;100398.19;;;23.09;19.53
49627;BME280;35527;54.616;39.786;2023-05-11T09:12:08;100389.91;;;22.70;20.09
49627;BME280;35527;54.616;39.786;2023-05-11T09:15:11;100403.06;;;22.92;19.83
49627;BME280;35527;54.616;39.786;2023-05-11T09:18:16;100395.72;;;22.41;20.72
49627;BME280;35527;54.616;39.786;2023-05-11T09:21:20;100386.09;;;22.52;20.11
49627;BME280;35527;54.616;39.786;2023-05-11T09:24:29;100397.88;;;22.36;20.40
49627;BME280;35527;54.616;39.786;2023-05-11T09:27:34;100398.47;;;22.17;21.37
49627;BME280;35527;54.616;39.786;2023-05-11T09:30:42;100386.94;;;21.96;21.25
49627;BME280;35527;54.616;39.786;2023-05-11T09:33:48;100368.25;;;22.99;20.08
49627;BME280;35527;54.616;39.786;2023-05-11T09:36:52;100385.28;;;24.20;18.95
49627;BME280;35527;54.616;39.786;2023-05-11T09:39:56;100353.25;;;24.54;19.46
49627;BME280;35527;54.616;39.786;2023-05-11T09:43:15;100378.06;;;23.92;19.42
49627;BME280;35527;54.616;39.786;2023-05-11T09:46:25;100366.75;;;23.59;20.25
49627;BME280;35527;54.616;39.786;2023-05-11T09:49:29;100352.59;;;24.41;18.97
49627;BME280;35527;54.616;39.786;2023-05-11T09:52:34;100369.72;;;24.67;19.11
49627;BME280;35527;54.616;39.786;2023-05-11T09:55:50;100342.50;;;25.53;19.08
49627;BME280;35527;54.616;39.786;2023-05-11T09:58:54;100360.25;;;25.33;18.48
49627;BME280;35527;54.616;39.786;2023-05-11T10:02:17;100355.03;;;26.08;17.62
49627;BME280;35527;54.616;39.786;2023-05-11T10:05:21;100329.28;;;25.24;18.04
49627;BME280;35527;54.616;39.786;2023-05-11T10:08:30;100357.00;;;23.59;19.67
49627;BME280;35527;54.616;39.786;2023-05-11T10:11:42;100341.28;;;23.58;19.40
49627;BME280;35527;54.616;39.786;2023-05-11T10:14:46;100357.59;;;23.84;19.31
49627;BME280;35527;54.616;39.786;2023-05-11T10:17:53;100333.22;;;23.59;19.55
49627;BME280;35527;54.616;39.786;2023-05-11T10:20:57;100353.56;;;23.06;20.55
49627;BME280;35527;54.616;39.786;2023-05-11T10:24:02;100341.50;;;22.15;21.54
49627;BME280;35527;54.616;39.786;2023-05-11T10:27:05;100348.69;;;21.21;22.27
49627;BME280;35527;54.616;39.786;2023-05-11T10:30:09;100315.16;;;20.40;22.69
49627;BME280;35527;54.616;39.786;2023-05-11T10:33:13;100349.13;;;20.43;23.51
49627;BME280;35527;54.616;39.786;2023-05-11T10:36:22;100345.31;;;20.10;24.23
49627;BME280;35527;54.616;39.786;2023-05-11T10:39:30;100338.88;;;20.14;24.17
49627;BME280;35527;54.616;39.786;2023-05-11T10:46:34;100321.31;;;20.64;22.95
49627;BME280;35527;54.616;39.786;2023-05-11T10:49:57;100343.19;;;21.24;22.23
49627;BME280;35527;54.616;39.786;2023-05-11T10:56:37;100338.44;;;21.29;22.37
49627;BME280;35527;54.616;39.786;2023-05-11T11:03:19;100305.78;;;21.32;22.22
49627;BME280;35527;54.616;39.786;2023-05-11T11:06:22;100307.09;;;21.02;23.41
49627;BME280;35527;54.616;39.786;2023-05-11T11:09:55;100325.56;;;20.78;23.42
49627;BME280;35527;54.616;39.786;2023-05-11T11:13:09;100320.97;;;20.93;23.93
49627;BME280;35527;54.616;39.786;2023-05-11T11:23:57;100295.06;;;20.76;22.92
49627;BME280;35527;54.616;39.786;2023-05-11T11:27:06;100296.63;;;21.13;23.09
49627;BME280;35527;54.616;39.786;2023-05-11T11:30:16;100300.78;;;21.51;22.49
49627;BME280;35527;54.616;39.786;2023-05-11T11:33:29;100297.44;;;21.72;22.16
49627;BME280;35527;54.616;39.786;2023-05-11T11:39:59;100296.03;;;20.75;23.05
49627;BME280;35527;54.616;39.786;2023-05-11T11:43:15;100274.19;;;20.97;22.33
49627;BME280;35527;54.616;39.786;2023-05-11T11:46:26;100299.00;;;21.17;23.80
49627;BME280;35527;54.616;39.786;2023-05-11T11:49:36;100283.19;;;21.05;22.22
49627;BME280;35527;54.616;39.786;2023-05-11T11:52:40;100286.38;;;21.33;22.42
49627;BME280;35527;54.616;39.786;2023-05-11T11:55:49;100286.19;;;21.70;22.00
49627;BME280;35527;54.616;39.786;2023-05-11T11:59:00;100274.09;;;21.78;21.70
49627;BME280;35527;54.616;39.786;2023-05-11T12:02:14;100259.69;;;21.26;21.96
49627;BME280;35527;54.616;39.786;2023-05-11T12:05:18;100263.81;;;20.71;22.97
49627;BME280;35527;54.616;39.786;2023-05-11T12:08:28;100267.50;;;20.92;22.20
49627;BME280;35527;54.616;39.786;2023-05-11T12:11:36;100275.56;;;21.25;22.20
49627;BME280;35527;54.616;39.786;2023-05-11T12:14:46;100272.94;;;20.78;22.52
49627;BME280;35527;54.616;39.786;2023-05-11T12:17:56;100248.44;;;20.54;23.45
49627;BME280;35527;54.616;39.786;2023-05-11T12:21:01;100264.88;;;20.68;23.32
49627;BME280;35527;54.616;39.786;2023-05-11T12:24:05;100256.41;;;21.11;23.01
49627;BME280;35527;54.616;39.786;2023-05-11T12:27:08;100259.13;;;21.68;21.75
49627;BME280;35527;54.616;39.786;2023-05-11T12:30:27;100244.00;;;22.03;21.26
49627;BME280;35527;54.616;39.786;2023-05-11T12:36:38;100253.84;;;21.45;21.82
49627;BME280;35527;54.616;39.786;2023-05-11T12:39:41;100262.25;;;21.50;22.63
49627;BME280;35527;54.616;39.786;2023-05-11T12:42:49;100259.84;;;21.58;21.42
49627;BME280;35527;54.616;39.786;2023-05-11T12:45:54;100246.97;;;21.31;22.08
49627;BME280;35527;54.616;39.786;2023-05-11T12:48:57;100248.06;;;21.18;22.86
49627;BME280;35527;54.616;39.786;2023-05-11T12:52:04;100250.63;;;20.95;24.04
49627;BME280;35527;54.616;39.786;2023-05-11T12:55:10;100251.94;;;20.89;24.65
49627;BME280;35527;54.616;39.786;2023-05-11T12:58:14;100255.59;;;20.76;23.19
49627;BME280;35527;54.616;39.786;2023-05-11T13:01:23;100255.56;;;20.52;24.81
49627;BME280;35527;54.616;39.786;2023-05-11T13:04:29;100241.47;;;20.05;23.72
49627;BME280;35527;54.616;39.786;2023-05-11T13:07:35;100235.00;;;19.85;24.85
49627;BME280;35527;54.616;39.786;2023-05-11T13:10:42;100244.47;;;19.87;25.44
49627;BME280;35527;54.616;39.786;2023-05-11T13:13:44;100228.00;;;19.72;24.80
49627;BME280;35527;54.616;39.786;2023-05-11T13:16:52;100228.47;;;19.90;24.91
49627;BME280;35527;54.616;39.786;2023-05-11T13:20:20;100248.97;;;19.98;25.84
49627;BME280;35527;54.616;39.786;2023-05-11T13:23:26;100239.66;;;19.81;25.92
49627;BME280;35527;54.616;39.786;2023-05-11T13:26:29;100236.41;;;19.77;25.71
49627;BME280;35527;54.616;39.786;2023-05-11T13:29:35;100235.38;;;19.67;26.22
49627;BME280;35527;54.616;39.786;2023-05-11T13:32:42;100242.16;;;19.83;26.39
49627;BME280;35527;54.616;39.786;2023-05-11T13:35:49;100242.38;;;19.79;26.24
49627;BME280;35527;54.616;39.786;2023-05-11T13:38:54;100241.19;;;19.96;26.78
49627;BME280;35527;54.616;39.786;2023-05-11T13:41:58;100227.88;;;19.87;26.64
49627;BME280;35527;54.616;39.786;2023-05-11T13:45:03;100236.19;;;19.80;26.41
49627;BME280;35527;54.616;39.786;2023-05-11T13:48:10;100238.03;;;19.91;26.16
49627;BME280;35527;54.616;39.786;2023-05-11T13:51:16;100235.69;;;20.12;25.41
49627;BME280;35527;54.616;39.786;2023-05-11T13:54:20;100228.00;;;20.09;24.94
49627;BME280;35527;54.616;39.786;2023-05-11T13:57:28;100238.22;;;20.01;26.51
49627;BME280;35527;54.616;39.786;2023-05-11T14:00:47;100230.28;;;19.90;25.57
49627;BME280;35527;54.616;39.786;2023-05-11T14:04:01;100231.69;;;19.70;24.95
49627;BME280;35527;54.616;39.786;2023-05-11T14:07:04;100234.94;;;19.73;25.75
49627;BME280;35527;54.616;39.786;2023-05-11T14:10:09;100218.22;;;19.62;26.78
49627;BME280;35527;54.616;39.786;2023-05-11T14:13:13;100231.78;;;19.55;27.42
49627;BME280;35527;54.616;39.786;2023-05-11T14:16:19;100233.56;;;19.55;26.83
49627;BME280;35527;54.616;39.786;2023-05-11T14:19:27;100226.19;;;19.60;26.45
49627;BME280;35527;54.616;39.786;2023-05-11T14:22:32;100220.09;;;19.59;26.28
49627;BME280;35527;54.616;39.786;2023-05-11T14:25:39;100226.75;;;19.27;26.18
49627;BME280;35527;54.616;39.786;2023-05-11T14:28:42;100209.94;;;19.17;26.65
49627;BME280;35527;54.616;39.786;2023-05-11T14:31:49;100215.72;;;19.22;26.50
49627;BME280;35527;54.616;39.786;2023-05-11T14:34:57;100223.81;;;19.19;26.61
49627;BME280;35527;54.616;39.786;2023-05-11T14:38:00;100229.06;;;19.06;27.28
49627;BME280;35527;54.616;39.786;2023-05-11T14:41:08;100221.81;;;18.97;27.67
49627;BME280;35527;54.616;39.786;2023-05-11T14:44:11;100220.63;;;18.88;27.80
49627;BME280;35527;54.616;39.786;2023-05-11T14:47:15;100217.06;;;18.76;27.22
49627;BME280;35527;54.616;39.786;2023-05-11T14:50:18;100212.81;;;18.61;27.66
49627;BME280;35527;54.616;39.786;2023-05-11T14:53:22;100231.28;;;18.32;28.47
49627;BME280;35527;54.616;39.786;2023-05-11T14:56:28;100229.53;;;18.18;29.34
49627;BME280;35527;54.616;39.786;2023-05-11T14:59:33;100237.38;;;17.77;29.50
49627;BME280;35527;54.616;39.786;2023-05-11T15:02:40;100243.16;;;17.25;31.00
49627;BME280;35527;54.616;39.786;2023-05-11T15:05:44;100273.81;;;16.93;34.28
49627;BME280;35527;54.616;39.786;2023-05-11T15:08:50;100271.72;;;16.37;36.59
49627;BME280;35527;54.616;39.786;2023-05-11T15:11:54;100269.91;;;15.74;39.32
49627;BME280;35527;54.616;39.786;2023-05-11T15:14:59;100274.19;;;15.75;37.80
49627;BME280;35527;54.616;39.786;2023-05-11T15:18:03;100280.09;;;15.79;37.10
49627;BME280;35527;54.616;39.786;2023-05-11T15:21:09;100243.72;;;15.76;39.07
49627;BME280;35527;54.616;39.786;2023-05-11T15:24:13;100254.84;;;15.95;37.25
49627;BME280;35527;54.616;39.786;2023-05-11T15:27:20;100226.31;;;15.92;35.96
49627;BME280;35527;54.616;39.786;2023-05-11T15:30:23;100247.22;;;16.08;35.96
49627;BME280;35527;54.616;39.786;2023-05-11T15:33:28;100220.91;;;15.95;35.76
49627;BME280;35527;54.616;39.786;2023-05-11T15:36:31;100245.84;;;16.17;35.90
49627;BME280;35527;54.616;39.786;2023-05-11T15:39:36;100246.69;;;16.17;36.11
49627;BME280;35527;54.616;39.786;2023-05-11T15:42:41;100220.41;;;16.05;35.88
49627;BME280;35527;54.616;39.786;2023-05-11T15:45:47;100234.06;;;16.10;36.07
49627;BME280;35527;54.616;39.786;2023-05-11T15:48:51;100247.59;;;16.16;35.37
49627;BME280;35527;54.616;39.786;2023-05-11T15:51:54;100240.88;;;16.12;37.13
49627;BME280;35527;54.616;39.786;2023-05-11T15:55:01;100211.56;;;15.91;37.25
49627;BME280;35527;54.616;39.786;2023-05-11T15:58:06;100238.44;;;16.09;36.95
49627;BME280;35527;54.616;39.786;2023-05-11T16:01:10;100238.50;;;16.08;36.33
49627;BME280;35527;54.616;39.786;2023-05-11T16:04:16;100236.25;;;16.02;35.87
49627;BME280;35527;54.616;39.786;2023-05-11T16:07:19;100177.50;;;15.61;36.75
49627;BME280;35527;54.616;39.786;2023-05-11T16:10:23;100233.97;;;15.95;36.09
49627;BME280;35527;54.616;39.786;2023-05-11T16:13:27;100231.19;;;15.98;36.50
49627;BME280;35527;54.616;39.786;2023-05-11T16:16:31;100242.56;;;15.97;36.14
49627;BME280;35527;54.616;39.786;2023-05-11T16:19:35;100235.22;;;16.04;36.54
49627;BME280;35527;54.616;39.786;2023-05-11T16:22:40;100247.22;;;16.08;37.79
49627;BME280;35527;54.616;39.786;2023-05-11T16:25:43;100243.34;;;15.99;39.07
49627;BME280;35527;54.616;39.786;2023-05-11T16:28:47;100240.19;;;15.93;38.54
49627;BME280;35527;54.616;39.786;2023-05-11T16:31:51;100252.41;;;15.92;38.29
49627;BME280;35527;54.616;39.786;2023-05-11T16:35:02;100233.19;;;15.77;39.11
49627;BME280;35527;54.616;39.786;2023-05-11T16:38:17;100241.38;;;15.71;38.90